Time;durP1;ratioP1;P1;durP2;ratioP2;P2;SDS_P1;SDS_P2;PMS_P1;PMS_P2;Temp;Humidity;BMP_temperature;BMP_pressure;BME280_temperature;BME280_humidity;BME280_pressure;Samples;Min_cycle;Max_cycle;Signal;HPM_P1;HPM_P2
2022/07/05 00:01:34;;;;;;;1.55;1.42;;;;;;;18.80;50.86;99228.91;2617906;54;20038;-69
2022/07/05 00:04:04;;;;;;;2.00;1.25;;;;;;;18.80;50.65;99231.59;2618177;54;20026;-68
2022/07/05 00:06:34;;;;;;;3.45;1.30;;;;;;;18.80;50.75;99237.75;2618158;54;20118;-69
2022/07/05 00:09:03;;;;;;;1.75;1.13;;;;;;;18.72;51.37;99230.09;2617796;47;20034;-69
2022/07/05 00:11:33;;;;;;;1.20;1.10;;;;;;;18.65;51.23;99228.53;2620400;54;20035;-72
2022/07/05 00:14:02;;;;;;;8.35;2.17;;;;;;;18.54;51.79;99232.88;2621321;54;20053;-70
2022/07/05 00:16:34;;;;;;;4.50;1.40;;;;;;;18.48;51.86;99237.28;2619271;54;20026;-70
2022/07/05 00:19:04;;;;;;;3.90;1.65;;;;;;;18.37;51.74;99239.97;2619635;54;20042;-70
2022/07/05 00:21:34;;;;;;;1.90;1.60;;;;;;;18.33;52.42;99236.97;2619822;54;20035;-70
2022/07/05 00:24:03;;;;;;;2.60;1.70;;;;;;;18.35;52.53;99242.06;2619299;54;20038;-70
2022/07/05 00:26:33;;;;;;;3.42;1.38;;;;;;;18.22;52.77;99233.22;2620966;54;20034;-68
2022/07/05 00:29:02;;;;;;;2.65;1.23;;;;;;;18.19;53.15;99232.84;2619199;47;20026;-70
2022/07/05 00:31:34;;;;;;;7.70;2.17;;;;;;;18.15;53.00;99229.03;2618406;54;20034;-70
2022/07/05 00:34:04;;;;;;;4.93;1.40;;;;;;;18.07;53.52;99227.50;2619252;39;20426;-68
2022/07/05 00:36:34;;;;;;;1.63;1.52;;;;;;;18.02;53.50;99228.19;2617741;47;20589;-69
2022/07/05 00:39:05;;;;;;;1.60;1.42;;;;;;;18.01;53.39;99225.75;2618420;54;20030;-70
2022/07/05 00:41:35;;;;;;;4.57;1.73;;;;;;;17.89;54.00;99224.91;2617953;54;20030;-70
2022/07/05 00:44:08;;;;;;;2.80;1.65;;;;;;;17.96;54.19;99223.78;2617966;54;20023;-70
2022/07/05 00:46:41;;;;;;;1.53;1.40;;;;;;;17.93;54.23;99229.56;2618510;54;20037;-69
2022/07/05 00:49:11;;;;;;;2.30;1.30;;;;;;;17.82;54.06;99228.50;2617753;46;20061;-69
2022/07/05 00:51:42;;;;;;;1.95;1.60;;;;;;;17.82;54.60;99233.03;2617643;54;20122;-71
2022/07/05 00:54:34;;;;;;;2.33;1.40;;;;;;;17.83;54.46;99230.13;2617661;54;20026;-69
2022/07/05 00:57:04;;;;;;;3.00;1.60;;;;;;;17.85;54.52;99231.78;2618169;54;20031;-68
2022/07/05 00:59:35;;;;;;;3.50;1.63;;;;;;;17.92;54.09;99246.69;2618272;54;20034;-72
2022/07/05 01:02:07;;;;;;;3.63;1.40;;;;;;;17.91;54.35;99246.88;2618845;39;20519;-69
2022/07/05 01:04:37;;;;;;;3.30;1.30;;;;;;;17.77;54.53;99236.41;2618966;54;20110;-70
2022/07/05 01:07:06;;;;;;;4.20;1.90;;;;;;;17.79;54.08;99236.16;2624494;54;20270;-70
2022/07/05 01:09:36;;;;;;;3.25;1.70;;;;;;;17.72;54.97;99238.09;2618119;54;20602;-71
2022/07/05 01:12:06;;;;;;;1.88;1.63;;;;;;;17.72;54.38;99238.91;2617951;47;20069;-71
2022/07/05 01:14:37;;;;;;;1.85;1.40;;;;;;;17.57;54.58;99233.16;2619673;39;20419;-71
2022/07/05 01:17:10;;;;;;;1.70;1.60;;;;;;;17.51;55.39;99239.41;2618087;54;20034;-71
2022/07/05 01:19:40;;;;;;;4.05;1.50;;;;;;;17.35;55.37;99235.53;2618097;54;20550;-72
2022/07/05 01:22:17;;;;;;;2.08;1.45;;;;;;;17.37;55.58;99235.28;2618703;39;20406;-70
2022/07/05 01:24:50;;;;;;;3.40;1.70;;;;;;;17.41;55.62;99234.63;2618230;54;20130;-68
2022/07/05 01:27:21;;;;;;;5.53;1.75;;;;;;;17.28;56.02;99235.59;2618078;54;20033;-68
2022/07/05 01:29:50;;;;;;;1.63;1.30;;;;;;;17.27;56.14;99243.88;2617463;54;20029;-68
2022/07/05 01:32:20;;;;;;;2.50;1.80;;;;;;;17.32;56.24;99236.78;2617382;47;20030;-68
2022/07/05 01:34:50;;;;;;;2.17;1.60;;;;;;;17.33;56.28;99240.28;2618140;54;20026;-68
2022/07/05 01:37:20;;;;;;;2.42;1.75;;;;;;;17.19;56.47;99247.66;2617403;47;20042;-69
2022/07/05 01:39:53;;;;;;;1.75;1.40;;;;;;;17.10;56.89;99246.31;2619153;39;20455;-71
2022/07/05 01:42:23;;;;;;;;;;;;;;;17.04;56.19;99247.22;2621045;54;20030;-69
2022/07/05 01:44:53;;;;;;;3.75;2.10;;;;;;;17.02;56.66;99244.78;2626115;39;20323;-69
2022/07/05 04:03:13;;;;;;;;;;;;;;;15.69;59.85;99298.41;2611951;39;20449;-69
2022/07/05 04:05:45;;;;;;;7.13;2.25;;;;;;;15.65;60.22;99302.53;2624265;54;20462;-69
2022/07/05 04:08:16;;;;;;;3.53;2.40;;;;;;;15.68;60.05;99310.13;2624785;46;20568;-70
2022/07/05 04:10:48;;;;;;;4.65;2.03;;;;;;;15.67;60.38;99307.66;2625601;47;20030;-70
2022/07/05 04:13:20;;;;;;;4.50;1.77;;;;;;;15.74;60.13;99309.25;2623949;51;20038;-69
2022/07/05 04:15:53;;;;;;;3.08;2.03;;;;;;;15.86;60.09;99312.06;2620316;47;20041;-69
2022/07/05 04:18:25;;;;;;;3.50;2.45;;;;;;;15.96;59.70;99309.75;2623079;54;20030;-68
2022/07/05 04:20:58;;;;;;;3.13;1.90;;;;;;;15.93;59.82;99304.03;2626020;47;20034;-68
2022/07/05 04:23:28;;;;;;;3.63;2.05;;;;;;;15.85;59.80;99310.44;2625974;47;20033;-68
2022/07/05 04:25:57;;;;;;;4.63;2.15;;;;;;;15.70;59.93;99310.72;2626076;54;20126;-71
2022/07/05 04:28:33;;;;;;;5.50;2.35;;;;;;;15.74;60.73;99308.44;2624297;54;20085;-69
2022/07/05 04:31:05;;;;;;;2.60;2.20;;;;;;;15.84;60.46;99314.94;2617514;47;20059;-68
2022/07/05 04:33:42;;;;;;;3.70;2.45;;;;;;;15.99;60.22;99311.97;2618011;39;20422;-69
2022/07/05 04:36:15;;;;;;;2.70;2.30;;;;;;;16.13;59.81;99309.22;2617482;54;20122;-69
2022/07/05 04:38:44;;;;;;;4.20;2.05;;;;;;;16.23;59.63;99314.88;2618239;54;20041;-68
2022/07/05 04:41:15;;;;;;;2.95;2.20;;;;;;;16.25;59.56;99310.16;2617598;54;20030;-68
2022/07/05 04:43:45;;;;;;;12.13;3.65;;;;;;;16.34;58.98;99303.53;2617638;54;20122;-68
2022/07/05 04:46:16;;;;;;;3.55;2.53;;;;;;;16.47;58.84;99314.09;2617780;47;20650;-69
2022/07/05 04:48:49;;;;;;;3.10;2.70;;;;;;;16.56;58.69;99303.94;2617523;47;20034;-68
2022/07/05 04:51:19;;;;;;;5.10;2.30;;;;;;;16.70;58.31;99307.31;2617223;54;20046;-68
2022/07/05 04:53:49;;;;;;;5.38;2.38;;;;;;;16.77;57.81;99305.41;2617261;39;20430;-68
2022/07/05 04:56:19;;;;;;;5.10;3.30;;;;;;;16.86;58.03;99308.63;2618228;54;20034;-68
2022/07/05 04:58:48;;;;;;;3.15;2.25;;;;;;;16.98;57.42;99309.50;2617563;47;20066;-68
2022/07/05 05:01:18;;;;;;;4.88;3.38;;;;;;;17.06;57.56;99304.72;2617918;54;20082;-68
2022/07/05 05:03:50;;;;;;;3.53;2.22;;;;;;;16.94;57.41;99308.31;2617932;54;20037;-68
2022/07/05 05:06:19;;;;;;;5.30;2.05;;;;;;;16.87;57.62;99315.63;2618035;54;20047;-70
2022/07/05 05:08:49;;;;;;;5.05;2.72;;;;;;;16.95;57.62;99315.31;2617805;54;20038;-69
2022/07/05 05:11:18;;;;;;;3.15;2.67;;;;;;;17.12;57.41;99316.38;2617910;54;20055;-69
2022/07/05 05:13:49;;;;;;;5.90;2.83;;;;;;;17.09;57.08;99309.59;2617992;54;20069;-69
2022/07/05 05:16:18;;;;;;;5.57;2.72;;;;;;;17.03;57.51;99315.03;2618772;31;20530;-69
2022/07/05 05:18:51;;;;;;;3.05;2.80;;;;;;;16.90;57.56;99318.66;2617330;54;20026;-69
2022/07/05 05:21:20;;;;;;;6.30;4.85;;;;;;;17.03;57.85;99318.50;2617778;54;20058;-69
2022/07/05 05:23:50;;;;;;;3.25;2.72;;;;;;;17.20;57.24;99316.06;2617288;54;20558;-69
2022/07/05 05:26:19;;;;;;;7.80;3.22;;;;;;;17.24;57.05;99319.13;2618035;54;20038;-70
2022/07/05 05:28:49;;;;;;;5.60;2.97;;;;;;;17.41;56.77;99320.13;2617865;54;20057;-69
2022/07/05 05:31:19;;;;;;;5.93;3.03;;;;;;;17.38;56.53;99320.56;2617726;54;20037;-68
2022/07/05 05:33:51;;;;;;;4.15;2.45;;;;;;;17.36;56.00;99324.53;2617753;54;20035;-68
2022/07/05 05:36:20;;;;;;;7.05;2.80;;;;;;;17.31;56.01;99334.03;2618070;54;20046;-68
2022/07/05 05:38:50;;;;;;;5.35;2.40;;;;;;;17.44;55.75;99316.22;2619783;54;20045;-68
2022/07/05 05:41:20;;;;;;;4.88;2.63;;;;;;;17.55;55.01;99324.28;2618379;54;20170;-70
2022/07/05 05:43:49;;;;;;;5.43;2.72;;;;;;;17.61;54.90;99325.25;2618755;31;20503;-69
2022/07/05 05:46:19;;;;;;;6.97;2.97;;;;;;;17.68;54.96;99325.16;2618047;54;20073;-69
2022/07/05 05:48:51;;;;;;;4.22;2.45;;;;;;;17.79;54.14;99327.88;2617165;47;20038;-69
2022/07/05 05:51:21;;;;;;;6.50;2.60;;;;;;;17.90;53.48;99331.66;2618149;39;20492;-68
2022/07/05 05:53:50;;;;;;;4.03;2.10;;;;;;;17.95;53.39;99330.97;2617916;54;20220;-68
2022/07/05 05:56:20;;;;;;;3.35;2.33;;;;;;;18.04;53.73;99332.28;2617917;54;20049;-70
2022/07/05 05:58:49;;;;;;;6.20;2.70;;;;;;;18.09;53.58;99339.66;2617980;54;20022;-69
2022/07/05 06:01:19;;;;;;;4.32;2.38;;;;;;;18.20;53.33;99344.19;2617657;54;20063;-69
2022/07/05 06:03:51;;;;;;;3.53;1.80;;;;;;;18.30;52.79;99344.47;2617981;54;20137;-70
2022/07/05 06:06:21;;;;;;;3.53;2.22;;;;;;;18.39;52.68;99350.28;2617971;54;20027;-68
2022/07/05 06:08:50;;;;;;;3.25;2.60;;;;;;;18.50;52.78;99347.63;2617868;54;20038;-68
2022/07/05 06:11:20;;;;;;;4.70;1.58;;;;;;;18.56;52.07;99345.88;2617748;54;20062;-69
2022/07/05 06:13:49;;;;;;;5.03;1.73;;;;;;;18.49;52.57;99356.72;2618009;54;20070;-69
2022/07/05 06:16:19;;;;;;;4.43;1.70;;;;;;;18.42;52.35;99352.53;2617920;54;20019;-70
2022/07/05 06:18:51;;;;;;;3.95;2.20;;;;;;;18.51;52.53;99362.66;2617911;54;20041;-70
2022/07/05 06:21:21;;;;;;;2.42;1.80;;;;;;;18.60;52.62;99354.28;2617675;54;20070;-70
2022/07/05 06:23:50;;;;;;;5.72;2.00;;;;;;;18.77;51.96;99355.25;2617844;54;20034;-70
2022/07/05 06:26:20;;;;;;;3.90;2.10;;;;;;;18.92;52.09;99355.59;2617808;54;20030;-70
2022/07/05 06:28:49;;;;;;;4.78;1.73;;;;;;;19.09;51.72;99366.44;2617817;54;20026;-69
2022/07/05 06:31:19;;;;;;;3.17;1.85;;;;;;;19.20;51.56;99354.06;2617719;54;20030;-68
2022/07/05 06:33:51;;;;;;;4.53;1.80;;;;;;;19.29;51.31;99350.78;2618316;39;20410;-69
2022/07/05 06:36:20;;;;;;;5.20;1.70;;;;;;;19.35;50.78;99350.88;2617236;54;20034;-69
2022/07/05 06:38:50;;;;;;;4.18;2.10;;;;;;;19.41;51.02;99349.97;2617835;54;20042;-70
2022/07/05 06:41:20;;;;;;;4.25;3.30;;;;;;;19.60;50.56;99358.66;2617704;54;20102;-68
2022/07/05 06:43:49;;;;;;;3.35;1.50;;;;;;;19.61;50.08;99353.09;2618646;31;20533;-69
2022/07/05 06:46:26;;;;;;;3.70;2.03;;;;;;;19.74;49.89;99357.34;2617867;54;20027;-69
2022/07/05 06:48:58;;;;;;;1.95;1.75;;;;;;;19.82;49.46;99356.97;2617694;54;20125;-68
2022/07/05 06:51:27;;;;;;;2.38;1.60;;;;;;;19.90;49.52;99361.16;2617770;54;20061;-70
2022/07/05 06:53:57;;;;;;;4.53;2.08;;;;;;;19.95;48.89;99353.19;2617263;54;20053;-70
2022/07/05 06:56:46;;;;;;;4.30;1.80;;;;;;;20.05;48.89;99358.75;2617969;54;20142;-70
2022/07/05 06:59:17;;;;;;;3.20;1.85;;;;;;;20.10;48.65;99361.53;2617623;54;20077;-70
2022/07/05 07:02:07;;;;;;;3.83;1.63;;;;;;;20.17;48.46;99362.19;2617038;47;20119;-69
2022/07/05 07:04:55;;;;;;;3.40;1.63;;;;;;;20.23;47.74;99363.91;2617204;49;20042;-69
2022/07/05 07:10:24;;;;;;;5.32;2.25;;;;;;;20.48;48.05;99360.84;2617461;54;20548;-70
2022/07/05 07:12:58;;;;;;;5.65;1.92;;;;;;;20.56;47.49;99361.50;2617573;54;20058;-69
2022/07/05 07:15:27;;;;;;;6.15;2.05;;;;;;;20.62;47.55;99365.94;2617571;54;20034;-69
2022/07/05 07:17:57;;;;;;;2.33;1.60;;;;;;;20.66;47.28;99362.50;2617853;54;20030;-71
2022/07/05 07:20:30;;;;;;;6.40;2.28;;;;;;;20.72;47.10;99366.06;2617674;54;20170;-69
2022/07/05 07:22:59;;;;;;;5.13;2.35;;;;;;;20.80;46.99;99364.84;2617123;51;20030;-68
2022/07/05 07:25:29;;;;;;;3.75;1.70;;;;;;;20.89;47.14;99371.44;2618285;39;20422;-68
2022/07/05 07:27:58;;;;;;;3.78;1.90;;;;;;;21.03;46.63;99368.16;2618005;54;20530;-68
2022/07/05 07:30:30;;;;;;;2.33;1.70;;;;;;;21.08;45.99;99369.28;2618291;54;20042;-68
2022/07/05 07:33:00;;;;;;;3.22;1.55;;;;;;;21.18;45.80;99370.22;2618291;54;20034;-69
2022/07/05 07:35:32;;;;;;;4.55;1.63;;;;;;;21.30;45.76;99369.31;2618407;54;20026;-68
2022/07/05 07:38:02;;;;;;;3.05;1.52;;;;;;;21.34;45.44;99367.78;2618716;54;20030;-69
2022/07/05 07:40:31;;;;;;;1.88;1.60;;;;;;;21.38;44.74;99367.03;2618740;54;20050;-69
2022/07/05 07:43:01;;;;;;;2.75;1.50;;;;;;;21.44;44.58;99367.94;2618658;54;20038;-69
2022/07/05 07:45:31;;;;;;;5.03;1.80;;;;;;;21.50;44.29;99366.91;2619136;39;20445;-70
2022/07/05 07:48:01;;;;;;;4.13;1.70;;;;;;;21.57;44.71;99372.13;2619754;54;20025;-69
2022/07/05 07:50:33;;;;;;;3.13;1.75;;;;;;;21.79;44.09;99367.53;2617832;54;20026;-70
2022/07/05 07:53:02;;;;;;;3.75;2.00;;;;;;;22.01;43.23;99362.94;2623681;54;20053;-71
2022/07/05 07:55:32;;;;;;;3.17;1.60;;;;;;;22.18;42.41;99368.25;2624221;54;20062;-70
2022/07/05 07:58:03;;;;;;;2.85;1.40;;;;;;;22.22;42.50;99366.66;2621630;54;20022;-69
2022/07/05 08:00:33;;;;;;;8.52;6.45;;;;;;;22.20;41.96;99366.09;2621404;54;20035;-69
2022/07/05 08:03:03;;;;;;;2.13;1.45;;;;;;;22.28;41.20;99367.53;2621238;54;20042;-69
2022/07/05 08:05:35;;;;;;;2.70;1.20;;;;;;;22.35;40.09;99373.53;2622606;54;20043;-70
2022/07/05 08:08:05;;;;;;;6.10;1.20;;;;;;;22.44;39.86;99371.97;2621680;54;20038;-71
2022/07/05 08:10:35;;;;;;;7.30;1.60;;;;;;;22.47;39.09;99370.66;2623622;54;20672;-70
2022/07/05 08:13:04;;;;;;;4.97;1.10;;;;;;;22.52;38.55;99369.88;2622788;54;20027;-71
2022/07/05 08:15:34;;;;;;;2.10;1.20;;;;;;;22.59;38.58;99367.78;2622741;54;20557;-69
2022/07/05 08:23:30;;;;;;;3.22;1.40;;;;;;;23.00;38.96;99355.44;2623995;54;20030;-71
2022/07/05 08:26:01;;;;;;;3.55;1.10;;;;;;;23.23;37.83;99356.94;2623343;54;20141;-73
2022/07/05 08:28:30;;;;;;;3.38;1.25;;;;;;;23.38;37.11;99357.00;2620014;54;20561;-70
2022/07/05 08:31:20;;;;;;;3.08;1.13;;;;;;;23.49;36.88;99355.16;2618132;54;20050;-69
2022/07/05 08:33:50;;;;;;;5.75;1.30;;;;;;;23.53;37.34;99356.25;2618932;54;20025;-68
2022/07/05 08:36:22;;;;;;;3.00;1.98;;;;;;;23.63;37.30;99356.28;2618375;54;20030;-69
2022/07/05 08:38:51;;;;;;;1.55;1.10;;;;;;;23.70;37.12;99350.66;2618399;54;20047;-68
2022/07/05 08:41:23;;;;;;;4.03;1.45;;;;;;;23.77;36.77;99342.34;2618052;54;20039;-67
2022/07/05 08:43:54;;;;;;;4.82;1.20;;;;;;;23.76;35.83;99355.03;2621463;54;20038;-68
2022/07/05 08:46:23;;;;;;;1.73;1.25;;;;;;;23.75;36.04;99352.56;2622165;54;20049;-68
2022/07/05 08:48:54;;;;;;;3.85;1.52;;;;;;;23.77;35.99;99350.44;2620382;54;20030;-69
2022/07/05 08:51:26;;;;;;;3.88;1.40;;;;;;;23.92;36.26;99340.50;2620785;54;20549;-68
2022/07/05 08:53:57;;;;;;;2.25;1.20;;;;;;;24.21;35.61;99334.59;2620686;54;20046;-69
2022/07/05 08:56:27;;;;;;;6.65;1.70;;;;;;;24.37;35.62;99336.22;2621636;39;20403;-68
2022/07/05 08:59:16;;;;;;;4.57;1.35;;;;;;;24.56;35.20;99332.97;2622206;39;20466;-68
2022/07/05 09:01:47;;;;;;;2.03;1.10;;;;;;;24.76;35.23;99343.78;2621141;47;20041;-69
2022/07/05 09:04:19;;;;;;;4.38;1.52;;;;;;;24.80;34.59;99338.63;2619519;54;20024;-69
2022/07/05 09:06:53;;;;;;;3.30;1.48;;;;;;;24.62;35.07;99332.72;2620610;54;20035;-69
2022/07/05 09:09:23;;;;;;;5.47;1.35;;;;;;;24.47;35.93;99335.41;2620728;54;20035;-69
2022/07/05 09:11:53;;;;;;;4.03;1.45;;;;;;;24.31;36.13;99336.47;2620230;54;20034;-69
2022/07/05 09:14:42;;;;;;;2.85;1.50;;;;;;;24.38;35.94;99329.75;2621422;54;20042;-67
2022/07/05 09:17:13;;;;;;;2.80;1.30;;;;;;;24.33;36.00;99332.44;2620248;54;20035;-69
2022/07/05 09:19:43;;;;;;;4.40;1.40;;;;;;;24.25;35.55;99335.66;2620453;54;20553;-69
2022/07/05 09:22:15;;;;;;;1.52;1.00;;;;;;;24.30;34.91;99338.38;2620662;54;20033;-69
2022/07/05 09:24:48;;;;;;;2.25;0.80;;;;;;;24.34;33.71;99333.25;2620898;54;20043;-69
2022/07/05 09:27:18;;;;;;;1.02;0.93;;;;;;;24.36;33.68;99334.56;2621032;54;20056;-68
2022/07/05 09:29:57;;;;;;;3.45;1.40;;;;;;;24.59;33.81;99337.84;2621461;54;20553;-68
2022/07/05 09:32:32;;;;;;;1.67;1.10;;;;;;;24.80;33.90;99335.94;2621395;54;20038;-67
2022/07/05 09:35:21;;;;;;;2.92;1.10;;;;;;;25.03;32.82;99326.44;2621225;54;20088;-69
2022/07/05 09:37:53;;;;;;;2.28;1.30;;;;;;;25.13;32.12;99332.63;2621546;54;20027;-68
2022/07/05 09:40:23;;;;;;;2.67;1.45;;;;;;;25.10;32.02;99327.75;2621305;54;20042;-68
2022/07/05 09:42:52;;;;;;;3.92;1.10;;;;;;;25.12;31.85;99332.91;2619562;54;20026;-69
2022/07/05 09:45:25;;;;;;;3.10;1.70;;;;;;;25.19;32.26;99333.44;2618513;54;20122;-69
2022/07/05 09:47:57;;;;;;;2.60;1.05;;;;;;;25.29;32.77;99333.41;2618784;54;20090;-68
2022/07/05 09:50:47;;;;;;;2.63;1.17;;;;;;;25.41;32.20;99333.88;2618866;54;20034;-69
2022/07/05 09:53:54;;;;;;;2.08;1.10;;;;;;;25.55;32.04;99331.38;2618015;54;20031;-68
2022/07/05 09:56:29;;;;;;;2.03;1.17;;;;;;;25.60;32.19;99325.16;2617991;54;20030;-69
2022/07/05 09:59:14;;;;;;;3.63;1.27;;;;;;;25.72;32.00;99330.22;2617807;54;20039;-69
2022/07/05 10:01:44;;;;;;;6.70;1.30;;;;;;;25.85;31.32;99329.66;2617933;54;20035;-69
2022/07/05 10:04:14;;;;;;;3.10;1.52;;;;;;;25.93;31.24;99320.94;2618714;54;20082;-70
2022/07/05 10:06:44;;;;;;;2.92;1.40;;;;;;;26.13;30.62;99319.97;2618679;54;20034;-71
2022/07/05 10:09:18;;;;;;;0.85;0.80;;;;;;;26.07;30.39;99321.91;2618709;54;20034;-70
2022/07/05 10:11:48;;;;;;;3.45;1.45;;;;;;;25.96;31.32;99330.38;2619549;54;20030;-68
2022/07/05 10:14:20;;;;;;;3.35;1.38;;;;;;;25.69;31.37;99321.56;2619679;39;20238;-69
2022/07/05 10:17:03;;;;;;;4.03;1.17;;;;;;;25.51;31.01;99315.97;2618811;54;20530;-69
2022/07/05 10:19:41;;;;;;;1.52;0.90;;;;;;;25.37;31.32;99324.69;2617772;54;20041;-70
2022/07/05 10:22:12;;;;;;;2.78;1.38;;;;;;;25.29;31.12;99316.34;2618603;54;20576;-69
2022/07/05 10:24:49;;;;;;;2.97;1.00;;;;;;;25.26;30.56;99317.72;2618475;54;20034;-69
2022/07/05 10:27:20;;;;;;;2.20;1.08;;;;;;;25.30;30.62;99326.88;2618260;54;20035;-69
2022/07/05 10:29:52;;;;;;;1.00;0.90;;;;;;;25.11;29.63;99321.28;2617972;54;20033;-68
2022/07/05 10:32:23;;;;;;;3.88;3.25;;;;;;;25.11;28.78;99326.69;2617960;54;20030;-69
2022/07/05 10:34:54;;;;;;;0.80;0.80;;;;;;;25.16;28.52;99320.47;2618056;54;20038;-68
2022/07/05 10:37:28;;;;;;;5.50;1.00;;;;;;;24.98;28.67;99321.00;2618062;54;20030;-69
2022/07/05 10:40:04;;;;;;;2.05;0.80;;;;;;;24.96;28.97;99313.19;2617839;54;20034;-68
2022/07/05 10:42:38;;;;;;;1.52;1.00;;;;;;;25.08;28.93;99302.06;2617374;46;20045;-69
2022/07/05 10:45:27;;;;;;;3.97;0.77;;;;;;;25.24;29.01;99308.25;2618040;54;20030;-69
2022/07/05 10:48:15;;;;;;;2.55;0.90;;;;;;;25.48;29.20;99311.94;2617878;54;20034;-69
2022/07/05 10:50:45;;;;;;;1.58;1.02;;;;;;;25.61;28.33;99308.63;2617386;31;20523;-69
2022/07/05 10:53:15;;;;;;;1.75;1.00;;;;;;;25.57;28.62;99304.84;2616668;54;20043;-68
2022/07/05 10:55:59;;;;;;;1.42;1.02;;;;;;;25.54;28.41;99307.31;2617322;54;20599;-69
2022/07/05 10:58:33;;;;;;;4.60;0.90;;;;;;;25.60;27.68;99300.78;2617751;54;20022;-69
2022/07/05 11:01:34;;;;;;;2.97;1.40;;;;;;;25.80;27.47;99308.00;2617378;54;20030;-68
2022/07/05 11:04:21;;;;;;;1.30;1.13;;;;;;;26.08;26.82;99299.13;2616965;47;20030;-68
2022/07/05 11:06:51;;;;;;;2.58;1.27;;;;;;;26.21;27.39;99300.41;2617893;54;20025;-69
2022/07/05 11:09:22;;;;;;;1.55;1.10;;;;;;;26.36;27.62;99300.25;2620066;54;20635;-70
2022/07/05 11:12:21;;;;;;;1.88;1.10;;;;;;;26.45;26.88;99295.06;2623249;54;20609;-70
2022/07/05 11:15:10;;;;;;;1.98;0.98;;;;;;;26.36;26.36;99294.84;2623570;51;20050;-68
2022/07/05 11:17:40;;;;;;;8.40;1.80;;;;;;;26.15;26.66;99294.22;2623857;54;20588;-68
2022/07/05 11:20:32;;;;;;;3.00;1.20;;;;;;;25.94;26.96;99288.13;2623254;54;20054;-68
2022/07/05 11:23:10;;;;;;;2.25;1.05;;;;;;;26.16;26.41;99286.88;2623471;54;20026;-69
2022/07/05 11:25:44;;;;;;;2.15;1.08;;;;;;;26.32;25.81;99285.66;2628847;39;20180;-69
2022/07/05 11:28:22;;;;;;;2.22;1.40;;;;;;;26.55;24.81;99281.44;2623867;54;20613;-69
2022/07/05 11:30:59;;;;;;;3.00;1.05;;;;;;;26.81;23.59;99283.88;2623953;47;20046;-68
2022/07/05 11:33:38;;;;;;;3.30;1.05;;;;;;;26.92;23.78;99279.97;2621801;54;20022;-68
2022/07/05 11:36:25;;;;;;;0.90;0.80;;;;;;;27.01;23.58;99283.66;2621034;54;20026;-68
2022/07/05 11:39:20;;;;;;;4.50;0.95;;;;;;;27.15;23.47;99273.75;2623197;54;20034;-67
2022/07/05 11:41:50;;;;;;;2.38;1.02;;;;;;;27.13;23.59;99278.66;2623374;54;20538;-68
2022/07/05 11:44:24;;;;;;;2.95;1.25;;;;;;;27.14;24.12;99266.69;2623891;54;20026;-68
2022/07/05 11:47:15;;;;;;;1.38;0.90;;;;;;;27.06;25.05;99277.34;2623681;54;20549;-66
2022/07/05 11:49:55;;;;;;;1.25;0.70;;;;;;;27.24;24.35;99260.34;2622104;54;20655;-68
2022/07/05 11:52:28;;;;;;;2.92;1.10;;;;;;;27.43;24.29;99268.50;2617866;54;20119;-68
2022/07/05 11:54:58;;;;;;;1.45;0.88;;;;;;;27.66;24.26;99267.63;2617742;54;20069;-69
2022/07/05 11:57:28;;;;;;;1.73;0.90;;;;;;;27.77;23.93;99267.53;2617559;39;20387;-69
2022/07/05 12:00:01;;;;;;;1.33;0.90;;;;;;;27.86;23.67;99260.31;2618311;54;20126;-68
2022/07/05 12:02:46;;;;;;;1.38;0.90;;;;;;;27.88;23.43;99266.25;2617455;54;20103;-68
2022/07/05 12:05:18;;;;;;;2.05;1.13;;;;;;;27.71;23.67;99263.22;2617145;54;20038;-68
2022/07/05 12:07:52;;;;;;;1.87;1.17;;;;;;;27.57;23.92;99253.09;2617458;54;20526;-69
2022/07/05 12:13:24;;;;;;;1.10;0.95;;;;;;;27.36;24.15;99243.63;2616932;54;20033;-69
2022/07/05 12:16:02;;;;;;;1.00;0.90;;;;;;;27.33;24.16;99241.50;2617493;54;20065;-69
2022/07/05 12:18:31;;;;;;;2.70;1.05;;;;;;;27.13;24.09;99239.84;2618650;54;20808;-68
2022/07/05 12:21:01;;;;;;;1.88;0.85;;;;;;;27.04;24.21;99244.28;2618307;54;20057;-68
2022/07/05 12:23:31;;;;;;;1.10;0.93;;;;;;;27.13;25.11;99237.13;2618242;54;20034;-68
2022/07/05 12:26:01;;;;;;;1.65;0.95;;;;;;;27.29;24.71;99235.03;2618010;39;20421;-68
2022/07/05 12:28:31;;;;;;;1.92;0.98;;;;;;;27.39;24.60;99240.31;2618190;54;20158;-69
2022/07/05 12:31:03;;;;;;;1.10;0.80;;;;;;;27.19;24.96;99238.72;2617974;54;20038;-68
2022/07/05 12:33:32;;;;;;;2.75;1.10;;;;;;;27.08;25.47;99234.47;2617476;54;20042;-69
2022/07/05 12:36:02;;;;;;;0.88;0.80;;;;;;;27.14;24.52;99231.41;2617537;47;20546;-70
2022/07/05 12:38:32;;;;;;;2.80;1.25;;;;;;;27.38;24.61;99227.84;2618292;54;20034;-69
2022/07/05 12:41:02;;;;;;;1.27;1.10;;;;;;;27.68;24.06;99223.91;2618761;54;20534;-69
2022/07/05 12:43:32;;;;;;;2.45;0.90;;;;;;;27.80;23.18;99224.28;2618940;39;20454;-69
2022/07/05 12:46:07;;;;;;;2.55;1.17;;;;;;;27.86;22.65;99219.56;2618294;54;20026;-69
2022/07/05 12:48:38;;;;;;;5.70;1.17;;;;;;;28.11;23.05;99226.47;2618291;54;20571;-69
2022/07/05 12:51:09;;;;;;;2.97;1.60;;;;;;;28.30;23.38;99229.97;2618068;54;20026;-69
2022/07/05 13:00:00;;;;;;;2.05;0.80;;;;;;;28.89;21.60;99214.69;2616415;54;20113;-69
2022/07/05 13:02:40;;;;;;;2.45;0.80;;;;;;;28.86;22.33;99215.34;2616434;47;20037;-69
2022/07/05 13:05:12;;;;;;;1.70;0.90;;;;;;;28.99;21.68;99213.72;2619773;54;20110;-69
2022/07/05 13:07:47;;;;;;;1.95;0.95;;;;;;;29.07;21.57;99204.84;2618265;54;20107;-69
2022/07/05 13:10:28;;;;;;;0.95;0.88;;;;;;;29.05;21.64;99200.81;2617890;54;20038;-70
2022/07/05 13:12:57;;;;;;;1.63;1.00;;;;;;;29.07;22.21;99198.59;2617888;54;20034;-69
2022/07/05 13:15:27;;;;;;;1.85;1.00;;;;;;;29.11;22.46;99203.13;2617880;54;20098;-69
2022/07/05 13:17:59;;;;;;;0.90;0.80;;;;;;;29.06;21.74;99214.09;2617902;54;20562;-69
2022/07/05 13:20:29;;;;;;;2.83;1.00;;;;;;;28.97;21.59;99212.41;2617853;54;20829;-68
2022/07/05 13:22:59;;;;;;;2.85;0.80;;;;;;;29.01;21.88;99216.94;2617914;54;20034;-69
2022/07/05 13:25:28;;;;;;;2.22;0.80;;;;;;;29.10;21.62;99208.84;2618868;39;20478;-68
2022/07/05 13:27:58;;;;;;;1.05;0.82;;;;;;;29.23;21.03;99215.38;2617186;47;20034;-69
2022/07/05 13:30:27;;;;;;;1.50;0.88;;;;;;;29.04;20.80;99213.63;2617855;54;20026;-68
2022/07/05 13:32:59;;;;;;;0.80;0.80;;;;;;;29.19;20.85;99207.06;2617936;54;20026;-69
2022/07/05 13:35:29;;;;;;;1.02;0.90;;;;;;;29.18;21.04;99208.13;2617272;54;20023;-68
2022/07/05 13:37:58;;;;;;;1.02;0.70;;;;;;;29.25;20.75;99197.66;2617402;47;20057;-68
2022/07/05 13:40:28;;;;;;;2.80;0.90;;;;;;;29.43;20.17;99204.03;2617776;54;20069;-69
2022/07/05 13:42:57;;;;;;;1.33;1.15;;;;;;;29.61;20.11;99203.13;2617881;54;20542;-69
2022/07/05 13:45:27;;;;;;;2.15;0.70;;;;;;;29.40;20.03;99207.41;2617945;54;20042;-69
2022/07/05 13:48:00;;;;;;;1.05;0.88;;;;;;;29.35;20.50;99208.31;2617978;54;20062;-68
2022/07/05 13:50:37;;;;;;;1.80;1.00;;;;;;;29.58;20.33;99203.72;2617878;54;20051;-69
2022/07/05 13:53:06;;;;;;;1.65;0.73;;;;;;;29.44;20.96;99213.84;2618134;54;20034;-69
2022/07/05 13:55:36;;;;;;;0.88;0.80;;;;;;;29.41;20.85;99210.94;2617515;47;20055;-69
2022/07/05 13:58:05;;;;;;;1.63;1.00;;;;;;;29.31;20.60;99211.94;2617995;54;20077;-69
2022/07/05 14:00:35;;;;;;;1.90;0.70;;;;;;;29.35;20.77;99211.06;2617589;54;20055;-69
2022/07/05 14:03:07;;;;;;;1.40;0.93;;;;;;;29.64;20.27;99209.03;2617792;54;20121;-69
2022/07/05 14:05:37;;;;;;;3.63;1.05;;;;;;;29.86;19.88;99203.63;2617320;47;20047;-69
2022/07/05 14:08:07;;;;;;;7.00;1.10;;;;;;;29.70;20.15;99205.09;2617903;54;20143;-69
2022/07/05 14:10:36;;;;;;;2.08;0.65;;;;;;;29.41;20.37;99200.03;2617839;54;20081;-69
2022/07/05 14:13:06;;;;;;;2.28;1.00;;;;;;;29.23;20.43;99199.88;2618111;54;20078;-69
2022/07/05 14:15:35;;;;;;;1.67;0.80;;;;;;;29.15;21.29;99199.78;2617947;54;20601;-69
2022/07/05 14:18:07;;;;;;;2.65;1.02;;;;;;;29.23;21.06;99194.44;2617777;54;20126;-69
2022/07/05 14:20:37;;;;;;;1.52;0.68;;;;;;;28.95;21.31;99195.56;2617692;54;20026;-68
2022/07/05 14:23:08;;;;;;;1.98;0.90;;;;;;;28.67;21.44;99192.06;2617094;47;20026;-68
2022/07/05 14:25:38;;;;;;;5.82;1.05;;;;;;;28.50;21.91;99187.22;2617834;54;20038;-68
2022/07/05 14:28:09;;;;;;;1.00;0.90;;;;;;;28.60;21.56;99195.16;2618046;54;20089;-67
2022/07/05 14:30:40;;;;;;;1.05;0.82;;;;;;;28.67;22.00;99187.41;2617196;47;20034;-68
2022/07/05 14:33:13;;;;;;;1.38;0.90;;;;;;;29.02;21.41;99185.09;2617938;54;20038;-69